sensor_id;sensor_type;location;lat;lon;timestamp;P1;durP1;ratioP1;P2;durP2;ratioP2
7383;SDS011;3733;47.994;8.820;2022-07-29T00:01:44;18.80;;;11.37;;
7383;SDS011;3733;47.994;8.820;2022-07-29T00:04:10;18.00;;;11.43;;
7383;SDS011;3733;47.994;8.820;2022-07-29T00:06:36;13.50;;;9.60;;
7383;SDS011;3733;47.994;8.820;2022-07-29T00:09:02;12.63;;;10.40;;
7383;SDS011;3733;47.994;8.820;2022-07-29T00:11:27;13.10;;;10.03;;
7383;SDS011;3733;47.994;8.820;2022-07-29T00:13:53;14.97;;;11.00;;
7383;SDS011;3733;47.994;8.820;2022-07-29T00:16:19;20.73;;;12.20;;
7383;SDS011;3733;47.994;8.820;2022-07-29T00:18:44;24.83;;;15.50;;
7383;SDS011;3733;47.994;8.820;2022-07-29T00:21:10;23.53;;;13.63;;
7383;SDS011;3733;47.994;8.820;2022-07-29T00:23:36;24.03;;;14.73;;
7383;SDS011;3733;47.994;8.820;2022-07-29T00:26:01;20.63;;;12.87;;
7383;SDS011;3733;47.994;8.820;2022-07-29T00:28:27;22.70;;;13.80;;
7383;SDS011;3733;47.994;8.820;2022-07-29T00:30:52;35.00;;;17.40;;
7383;SDS011;3733;47.994;8.820;2022-07-29T00:33:18;32.47;;;16.77;;
7383;SDS011;3733;47.994;8.820;2022-07-29T00:35:44;22.30;;;12.50;;
7383;SDS011;3733;47.994;8.820;2022-07-29T00:38:10;38.40;;;17.60;;
7383;SDS011;3733;47.994;8.820;2022-07-29T00:40:37;22.13;;;14.00;;
7383;SDS011;3733;47.994;8.820;2022-07-29T00:43:03;22.07;;;13.90;;
7383;SDS011;3733;47.994;8.820;2022-07-29T00:45:29;17.27;;;12.47;;
7383;SDS011;3733;47.994;8.820;2022-07-29T00:47:55;37.63;;;12.63;;
7383;SDS011;3733;47.994;8.820;2022-07-29T00:50:21;18.33;;;12.20;;
7383;SDS011;3733;47.994;8.820;2022-07-29T00:52:47;21.43;;;12.50;;
7383;SDS011;3733;47.994;8.820;2022-07-29T00:55:14;23.17;;;13.23;;
7383;SDS011;3733;47.994;8.820;2022-07-29T00:57:40;19.20;;;12.70;;
7383;SDS011;3733;47.994;8.820;2022-07-29T01:00:09;30.13;;;15.47;;
7383;SDS011;3733;47.994;8.820;2022-07-29T01:02:43;32.00;;;15.60;;
7383;SDS011;3733;47.994;8.820;2022-07-29T01:05:10;48.27;;;18.77;;
7383;SDS011;3733;47.994;8.820;2022-07-29T01:07:37;28.97;;;13.07;;
7383;SDS011;3733;47.994;8.820;2022-07-29T01:10:04;16.90;;;11.97;;
7383;SDS011;3733;47.994;8.820;2022-07-29T01:12:32;22.17;;;13.70;;
7383;SDS011;3733;47.994;8.820;2022-07-29T01:14:59;23.70;;;13.43;;
7383;SDS011;3733;47.994;8.820;2022-07-29T01:25:10;28.90;;;9.93;;
7383;SDS011;3733;47.994;8.820;2022-07-29T01:30:26;10.10;;;7.50;;
7383;SDS011;3733;47.994;8.820;2022-07-29T01:32:54;15.43;;;9.60;;
7383;SDS011;3733;47.994;8.820;2022-07-29T01:35:26;18.40;;;9.90;;
7383;SDS011;3733;47.994;8.820;2022-07-29T01:40:41;15.70;;;9.10;;
7383;SDS011;3733;47.994;8.820;2022-07-29T01:43:13;11.23;;;8.50;;
7383;SDS011;3733;47.994;8.820;2022-07-29T01:45:57;13.87;;;9.70;;
7383;SDS011;3733;47.994;8.820;2022-07-29T01:48:40;20.00;;;8.43;;
7383;SDS011;3733;47.994;8.820;2022-07-29T01:51:21;14.13;;;7.93;;
7383;SDS011;3733;47.994;8.820;2022-07-29T01:54:06;13.40;;;9.07;;
7383;SDS011;3733;47.994;8.820;2022-07-29T01:56:38;15.27;;;8.00;;
7383;SDS011;3733;47.994;8.820;2022-07-29T01:59:04;12.90;;;9.03;;
7383;SDS011;3733;47.994;8.820;2022-07-29T02:01:33;8.30;;;7.40;;
7383;SDS011;3733;47.994;8.820;2022-07-29T02:04:03;11.80;;;7.63;;
7383;SDS011;3733;47.994;8.820;2022-07-29T02:06:32;8.37;;;7.40;;
7383;SDS011;3733;47.994;8.820;2022-07-29T02:09:01;12.70;;;7.70;;
7383;SDS011;3733;47.994;8.820;2022-07-29T02:11:29;13.10;;;7.37;;
7383;SDS011;3733;47.994;8.820;2022-07-29T02:13:57;9.63;;;7.90;;
7383;SDS011;3733;47.994;8.820;2022-07-29T02:16:24;30.83;;;7.93;;
7383;SDS011;3733;47.994;8.820;2022-07-29T02:18:53;9.63;;;7.40;;
7383;SDS011;3733;47.994;8.820;2022-07-29T02:21:22;29.73;;;7.60;;
7383;SDS011;3733;47.994;8.820;2022-07-29T02:23:50;26.40;;;7.63;;
7383;SDS011;3733;47.994;8.820;2022-07-29T02:26:19;13.80;;;7.93;;
7383;SDS011;3733;47.994;8.820;2022-07-29T02:28:48;12.33;;;7.03;;
7383;SDS011;3733;47.994;8.820;2022-07-29T02:31:16;35.87;;;7.40;;
7383;SDS011;3733;47.994;8.820;2022-07-29T02:33:46;9.53;;;7.33;;
7383;SDS011;3733;47.994;8.820;2022-07-29T02:36:13;26.93;;;8.20;;
7383;SDS011;3733;47.994;8.820;2022-07-29T02:38:39;9.80;;;7.60;;
7383;SDS011;3733;47.994;8.820;2022-07-29T02:41:27;15.77;;;10.37;;
7383;SDS011;3733;47.994;8.820;2022-07-29T02:44:15;24.97;;;14.23;;
7383;SDS011;3733;47.994;8.820;2022-07-29T02:52:00;18.70;;;11.30;;
7383;SDS011;3733;47.994;8.820;2022-07-29T02:54:39;23.13;;;11.70;;
7383;SDS011;3733;47.994;8.820;2022-07-29T02:57:21;27.90;;;11.27;;
7383;SDS011;3733;47.994;8.820;2022-07-29T03:00:10;25.67;;;12.00;;
7383;SDS011;3733;47.994;8.820;2022-07-29T03:02:38;22.40;;;12.40;;
7383;SDS011;3733;47.994;8.820;2022-07-29T03:05:08;23.00;;;12.63;;
7383;SDS011;3733;47.994;8.820;2022-07-29T03:07:36;51.07;;;15.50;;
7383;SDS011;3733;47.994;8.820;2022-07-29T03:10:04;27.10;;;14.30;;
7383;SDS011;3733;47.994;8.820;2022-07-29T03:12:32;33.73;;;15.27;;
7383;SDS011;3733;47.994;8.820;2022-07-29T03:14:58;25.10;;;11.07;;
7383;SDS011;3733;47.994;8.820;2022-07-29T03:17:25;27.37;;;11.87;;
7383;SDS011;3733;47.994;8.820;2022-07-29T03:19:51;22.03;;;13.03;;
7383;SDS011;3733;47.994;8.820;2022-07-29T03:22:17;22.13;;;12.60;;
7383;SDS011;3733;47.994;8.820;2022-07-29T03:24:43;20.00;;;10.57;;
7383;SDS011;3733;47.994;8.820;2022-07-29T03:27:08;20.40;;;12.30;;
7383;SDS011;3733;47.994;8.820;2022-07-29T03:29:34;21.13;;;11.80;;
7383;SDS011;3733;47.994;8.820;2022-07-29T03:32:00;27.73;;;12.20;;
7383;SDS011;3733;47.994;8.820;2022-07-29T03:34:28;17.37;;;10.67;;
7383;SDS011;3733;47.994;8.820;2022-07-29T03:36:53;18.33;;;8.27;;
7383;SDS011;3733;47.994;8.820;2022-07-29T03:39:20;17.30;;;8.77;;
7383;SDS011;3733;47.994;8.820;2022-07-29T03:41:49;9.20;;;7.43;;
7383;SDS011;3733;47.994;8.820;2022-07-29T03:44:18;9.80;;;7.63;;
7383;SDS011;3733;47.994;8.820;2022-07-29T03:46:45;12.47;;;8.47;;
7383;SDS011;3733;47.994;8.820;2022-07-29T03:49:14;17.13;;;9.00;;
7383;SDS011;3733;47.994;8.820;2022-07-29T03:51:41;14.93;;;8.17;;
7383;SDS011;3733;47.994;8.820;2022-07-29T03:54:07;14.23;;;7.77;;
7383;SDS011;3733;47.994;8.820;2022-07-29T03:56:34;23.40;;;9.50;;
7383;SDS011;3733;47.994;8.820;2022-07-29T03:59:03;17.30;;;9.23;;
7383;SDS011;3733;47.994;8.820;2022-07-29T04:01:29;12.67;;;8.77;;
7383;SDS011;3733;47.994;8.820;2022-07-29T04:03:58;11.10;;;8.70;;
7383;SDS011;3733;47.994;8.820;2022-07-29T04:06:25;32.00;;;8.53;;
7383;SDS011;3733;47.994;8.820;2022-07-29T04:08:51;11.60;;;9.07;;
7383;SDS011;3733;47.994;8.820;2022-07-29T04:11:17;10.70;;;8.40;;
7383;SDS011;3733;47.994;8.820;2022-07-29T04:13:43;8.90;;;7.90;;
7383;SDS011;3733;47.994;8.820;2022-07-29T04:16:08;9.17;;;6.70;;
7383;SDS011;3733;47.994;8.820;2022-07-29T04:18:34;8.47;;;6.60;;
7383;SDS011;3733;47.994;8.820;2022-07-29T04:21:00;8.80;;;6.33;;
7383;SDS011;3733;47.994;8.820;2022-07-29T04:23:26;7.97;;;6.00;;
7383;SDS011;3733;47.994;8.820;2022-07-29T04:25:52;8.63;;;6.80;;
7383;SDS011;3733;47.994;8.820;2022-07-29T04:28:18;12.03;;;7.93;;
7383;SDS011;3733;47.994;8.820;2022-07-29T04:30:43;9.53;;;7.03;;
7383;SDS011;3733;47.994;8.820;2022-07-29T04:33:09;10.70;;;7.70;;
7383;SDS011;3733;47.994;8.820;2022-07-29T04:35:36;14.73;;;8.07;;
7383;SDS011;3733;47.994;8.820;2022-07-29T04:38:03;28.67;;;8.13;;
7383;SDS011;3733;47.994;8.820;2022-07-29T04:40:29;19.07;;;7.30;;
7383;SDS011;3733;47.994;8.820;2022-07-29T04:42:55;22.37;;;7.10;;
7383;SDS011;3733;47.994;8.820;2022-07-29T04:45:20;9.80;;;6.90;;
7383;SDS011;3733;47.994;8.820;2022-07-29T04:47:46;14.60;;;8.13;;
7383;SDS011;3733;47.994;8.820;2022-07-29T04:50:12;12.27;;;7.57;;
7383;SDS011;3733;47.994;8.820;2022-07-29T04:52:37;10.63;;;7.20;;
7383;SDS011;3733;47.994;8.820;2022-07-29T04:55:03;13.90;;;8.20;;
7383;SDS011;3733;47.994;8.820;2022-07-29T04:57:30;13.10;;;7.77;;
7383;SDS011;3733;47.994;8.820;2022-07-29T04:59:55;13.43;;;8.17;;
7383;SDS011;3733;47.994;8.820;2022-07-29T05:02:21;13.13;;;8.17;;
7383;SDS011;3733;47.994;8.820;2022-07-29T05:04:47;12.50;;;8.10;;
7383;SDS011;3733;47.994;8.820;2022-07-29T05:07:13;11.87;;;8.10;;
7383;SDS011;3733;47.994;8.820;2022-07-29T05:09:39;11.33;;;8.50;;
7383;SDS011;3733;47.994;8.820;2022-07-29T05:12:05;12.13;;;9.17;;
7383;SDS011;3733;47.994;8.820;2022-07-29T05:14:32;17.23;;;10.20;;
7383;SDS011;3733;47.994;8.820;2022-07-29T05:16:58;14.80;;;11.07;;
7383;SDS011;3733;47.994;8.820;2022-07-29T05:19:24;15.00;;;9.43;;
7383;SDS011;3733;47.994;8.820;2022-07-29T05:21:49;15.93;;;9.80;;
7383;SDS011;3733;47.994;8.820;2022-07-29T05:24:15;14.60;;;8.43;;
7383;SDS011;3733;47.994;8.820;2022-07-29T05:26:41;13.57;;;9.07;;
7383;SDS011;3733;47.994;8.820;2022-07-29T05:29:07;14.20;;;9.20;;
7383;SDS011;3733;47.994;8.820;2022-07-29T05:31:33;15.83;;;9.47;;
7383;SDS011;3733;47.994;8.820;2022-07-29T05:33:58;18.70;;;11.03;;
7383;SDS011;3733;47.994;8.820;2022-07-29T05:36:24;30.27;;;11.83;;
7383;SDS011;3733;47.994;8.820;2022-07-29T05:38:50;19.53;;;11.97;;
7383;SDS011;3733;47.994;8.820;2022-07-29T05:41:17;19.47;;;12.80;;
7383;SDS011;3733;47.994;8.820;2022-07-29T05:43:46;15.60;;;10.37;;
7383;SDS011;3733;47.994;8.820;2022-07-29T05:46:11;17.77;;;11.00;;
7383;SDS011;3733;47.994;8.820;2022-07-29T05:48:38;24.70;;;13.90;;
7383;SDS011;3733;47.994;8.820;2022-07-29T05:51:04;35.90;;;15.37;;
7383;SDS011;3733;47.994;8.820;2022-07-29T05:53:30;49.33;;;16.13;;
7383;SDS011;3733;47.994;8.820;2022-07-29T05:55:56;29.43;;;15.37;;
7383;SDS011;3733;47.994;8.820;2022-07-29T05:58:21;29.20;;;16.73;;
7383;SDS011;3733;47.994;8.820;2022-07-29T06:00:47;32.20;;;17.13;;
7383;SDS011;3733;47.994;8.820;2022-07-29T06:03:12;37.93;;;16.80;;
7383;SDS011;3733;47.994;8.820;2022-07-29T06:05:38;21.70;;;13.03;;
7383;SDS011;3733;47.994;8.820;2022-07-29T06:08:04;28.93;;;14.40;;
7383;SDS011;3733;47.994;8.820;2022-07-29T06:10:32;29.73;;;15.40;;
7383;SDS011;3733;47.994;8.820;2022-07-29T06:12:57;35.10;;;18.77;;
7383;SDS011;3733;47.994;8.820;2022-07-29T06:15:23;29.73;;;15.10;;
7383;SDS011;3733;47.994;8.820;2022-07-29T06:17:49;25.33;;;14.93;;
7383;SDS011;3733;47.994;8.820;2022-07-29T06:20:14;17.73;;;11.20;;
7383;SDS011;3733;47.994;8.820;2022-07-29T06:22:40;19.33;;;12.70;;
7383;SDS011;3733;47.994;8.820;2022-07-29T06:25:05;17.63;;;11.80;;
7383;SDS011;3733;47.994;8.820;2022-07-29T06:27:31;14.50;;;9.90;;
7383;SDS011;3733;47.994;8.820;2022-07-29T06:29:57;12.40;;;9.37;;
7383;SDS011;3733;47.994;8.820;2022-07-29T06:32:22;15.03;;;10.23;;
7383;SDS011;3733;47.994;8.820;2022-07-29T06:34:48;10.13;;;9.00;;
7383;SDS011;3733;47.994;8.820;2022-07-29T06:37:14;10.23;;;8.53;;
7383;SDS011;3733;47.994;8.820;2022-07-29T06:39:40;15.30;;;9.03;;
7383;SDS011;3733;47.994;8.820;2022-07-29T06:42:05;7.10;;;6.40;;
7383;SDS011;3733;47.994;8.820;2022-07-29T06:44:31;9.30;;;7.40;;
7383;SDS011;3733;47.994;8.820;2022-07-29T06:47:00;7.50;;;6.40;;
7383;SDS011;3733;47.994;8.820;2022-07-29T06:49:26;8.17;;;6.60;;
7383;SDS011;3733;47.994;8.820;2022-07-29T06:51:52;22.33;;;10.70;;
7383;SDS011;3733;47.994;8.820;2022-07-29T06:54:19;17.40;;;11.93;;
7383;SDS011;3733;47.994;8.820;2022-07-29T06:56:44;14.20;;;10.53;;
7383;SDS011;3733;47.994;8.820;2022-07-29T06:59:10;13.20;;;10.00;;
7383;SDS011;3733;47.994;8.820;2022-07-29T07:01:38;15.03;;;10.57;;
7383;SDS011;3733;47.994;8.820;2022-07-29T07:04:08;10.33;;;9.23;;
7383;SDS011;3733;47.994;8.820;2022-07-29T07:06:34;14.33;;;10.00;;
7383;SDS011;3733;47.994;8.820;2022-07-29T07:09:00;9.50;;;8.60;;
7383;SDS011;3733;47.994;8.820;2022-07-29T07:11:26;13.87;;;9.33;;
7383;SDS011;3733;47.994;8.820;2022-07-29T07:13:52;12.43;;;8.80;;
7383;SDS011;3733;47.994;8.820;2022-07-29T07:16:18;14.07;;;9.03;;
7383;SDS011;3733;47.994;8.820;2022-07-29T07:18:44;11.13;;;8.60;;
7383;SDS011;3733;47.994;8.820;2022-07-29T07:21:10;11.80;;;8.50;;
7383;SDS011;3733;47.994;8.820;2022-07-29T07:23:36;10.83;;;8.10;;
7383;SDS011;3733;47.994;8.820;2022-07-29T07:26:01;9.40;;;7.90;;
7383;SDS011;3733;47.994;8.820;2022-07-29T07:28:28;11.47;;;8.77;;
7383;SDS011;3733;47.994;8.820;2022-07-29T07:30:53;11.17;;;7.50;;
7383;SDS011;3733;47.994;8.820;2022-07-29T07:33:19;12.27;;;8.03;;
7383;SDS011;3733;47.994;8.820;2022-07-29T07:35:45;9.13;;;7.93;;
7383;SDS011;3733;47.994;8.820;2022-07-29T07:38:11;9.33;;;7.90;;
7383;SDS011;3733;47.994;8.820;2022-07-29T07:40:37;11.17;;;8.87;;
7383;SDS011;3733;47.994;8.820;2022-07-29T07:43:02;11.67;;;8.50;;
7383;SDS011;3733;47.994;8.820;2022-07-29T07:45:28;8.83;;;7.70;;
7383;SDS011;3733;47.994;8.820;2022-07-29T07:47:54;11.87;;;8.50;;
7383;SDS011;3733;47.994;8.820;2022-07-29T07:50:19;10.90;;;8.10;;
7383;SDS011;3733;47.994;8.820;2022-07-29T07:52:46;14.00;;;9.40;;
7383;SDS011;3733;47.994;8.820;2022-07-29T07:55:16;13.20;;;8.90;;
7383;SDS011;3733;47.994;8.820;2022-07-29T07:57:41;10.80;;;8.70;;
7383;SDS011;3733;47.994;8.820;2022-07-29T08:00:07;8.03;;;7.23;;
7383;SDS011;3733;47.994;8.820;2022-07-29T08:02:33;11.07;;;8.60;;
7383;SDS011;3733;47.994;8.820;2022-07-29T08:04:59;11.43;;;7.47;;
7383;SDS011;3733;47.994;8.820;2022-07-29T08:07:25;12.13;;;7.80;;
7383;SDS011;3733;47.994;8.820;2022-07-29T08:09:51;9.03;;;8.00;;
7383;SDS011;3733;47.994;8.820;2022-07-29T08:12:16;12.90;;;8.60;;
7383;SDS011;3733;47.994;8.820;2022-07-29T08:14:42;12.10;;;9.13;;
7383;SDS011;3733;47.994;8.820;2022-07-29T08:17:07;10.60;;;8.60;;
7383;SDS011;3733;47.994;8.820;2022-07-29T08:19:33;14.60;;;9.60;;
7383;SDS011;3733;47.994;8.820;2022-07-29T08:21:59;13.03;;;8.47;;
7383;SDS011;3733;47.994;8.820;2022-07-29T08:24:24;18.10;;;9.73;;
7383;SDS011;3733;47.994;8.820;2022-07-29T08:27:09;15.10;;;9.43;;
7383;SDS011;3733;47.994;8.820;2022-07-29T08:29:36;9.93;;;8.10;;
7383;SDS011;3733;47.994;8.820;2022-07-29T08:32:02;13.13;;;8.67;;
7383;SDS011;3733;47.994;8.820;2022-07-29T08:34:28;11.73;;;8.20;;
7383;SDS011;3733;47.994;8.820;2022-07-29T08:36:55;14.40;;;9.83;;
7383;SDS011;3733;47.994;8.820;2022-07-29T08:39:21;12.93;;;8.70;;
7383;SDS011;3733;47.994;8.820;2022-07-29T08:41:47;13.80;;;8.77;;
7383;SDS011;3733;47.994;8.820;2022-07-29T08:44:15;10.13;;;7.60;;
7383;SDS011;3733;47.994;8.820;2022-07-29T08:46:41;10.30;;;8.13;;
7383;SDS011;3733;47.994;8.820;2022-07-29T08:49:07;8.27;;;7.20;;
7383;SDS011;3733;47.994;8.820;2022-07-29T08:51:33;13.00;;;8.47;;
7383;SDS011;3733;47.994;8.820;2022-07-29T08:54:01;10.70;;;7.10;;
7383;SDS011;3733;47.994;8.820;2022-07-29T08:56:27;13.37;;;7.90;;
7383;SDS011;3733;47.994;8.820;2022-07-29T08:58:54;9.03;;;7.20;;
7383;SDS011;3733;47.994;8.820;2022-07-29T09:01:23;7.53;;;6.43;;
7383;SDS011;3733;47.994;8.820;2022-07-29T09:03:54;10.57;;;6.83;;
7383;SDS011;3733;47.994;8.820;2022-07-29T09:06:21;13.40;;;6.93;;
7383;SDS011;3733;47.994;8.820;2022-07-29T09:08:47;7.53;;;6.33;;
7383;SDS011;3733;47.994;8.820;2022-07-29T09:11:13;8.80;;;6.80;;
7383;SDS011;3733;47.994;8.820;2022-07-29T09:13:39;9.20;;;7.23;;
7383;SDS011;3733;47.994;8.820;2022-07-29T09:16:05;7.90;;;7.10;;
7383;SDS011;3733;47.994;8.820;2022-07-29T09:18:36;12.00;;;7.23;;
7383;SDS011;3733;47.994;8.820;2022-07-29T09:21:04;11.93;;;7.37;;
7383;SDS011;3733;47.994;8.820;2022-07-29T09:26:44;10.40;;;7.40;;
7383;SDS011;3733;47.994;8.820;2022-07-29T09:29:15;11.13;;;6.67;;
7383;SDS011;3733;47.994;8.820;2022-07-29T09:31:43;10.57;;;6.93;;
7383;SDS011;3733;47.994;8.820;2022-07-29T09:34:11;8.27;;;6.60;;
7383;SDS011;3733;47.994;8.820;2022-07-29T09:36:38;12.10;;;6.40;;
7383;SDS011;3733;47.994;8.820;2022-07-29T09:39:07;8.07;;;6.50;;
7383;SDS011;3733;47.994;8.820;2022-07-29T09:41:49;8.23;;;6.70;;
7383;SDS011;3733;47.994;8.820;2022-07-29T09:44:19;10.20;;;6.70;;
7383;SDS011;3733;47.994;8.820;2022-07-29T09:49:24;7.73;;;5.17;;
7383;SDS011;3733;47.994;8.820;2022-07-29T09:52:06;6.90;;;5.33;;
7383;SDS011;3733;47.994;8.820;2022-07-29T09:54:34;6.47;;;4.87;;
7383;SDS011;3733;47.994;8.820;2022-07-29T09:57:04;7.80;;;5.70;;
7383;SDS011;3733;47.994;8.820;2022-07-29T09:59:37;7.37;;;6.40;;
7383;SDS011;3733;47.994;8.820;2022-07-29T10:02:11;10.80;;;7.07;;
7383;SDS011;3733;47.994;8.820;2022-07-29T10:04:38;7.70;;;6.90;;
7383;SDS011;3733;47.994;8.820;2022-07-29T10:07:07;8.00;;;5.90;;
7383;SDS011;3733;47.994;8.820;2022-07-29T10:09:34;7.00;;;5.30;;
7383;SDS011;3733;47.994;8.820;2022-07-29T10:14:30;8.67;;;6.43;;
7383;SDS011;3733;47.994;8.820;2022-07-29T10:16:57;5.57;;;4.87;;
7383;SDS011;3733;47.994;8.820;2022-07-29T10:19:25;11.27;;;7.77;;
7383;SDS011;3733;47.994;8.820;2022-07-29T10:21:51;9.20;;;7.00;;
7383;SDS011;3733;47.994;8.820;2022-07-29T10:24:17;7.33;;;5.43;;
7383;SDS011;3733;47.994;8.820;2022-07-29T10:26:44;12.60;;;7.57;;
7383;SDS011;3733;47.994;8.820;2022-07-29T10:29:11;10.60;;;6.03;;
7383;SDS011;3733;47.994;8.820;2022-07-29T10:31:45;6.50;;;4.73;;
7383;SDS011;3733;47.994;8.820;2022-07-29T10:37:17;10.23;;;5.50;;
7383;SDS011;3733;47.994;8.820;2022-07-29T10:39:56;8.23;;;4.97;;
7383;SDS011;3733;47.994;8.820;2022-07-29T10:42:54;5.80;;;5.00;;
7383;SDS011;3733;47.994;8.820;2022-07-29T10:45:24;5.37;;;4.87;;
7383;SDS011;3733;47.994;8.820;2022-07-29T10:48:01;5.00;;;4.50;;
7383;SDS011;3733;47.994;8.820;2022-07-29T10:50:44;6.10;;;4.63;;
7383;SDS011;3733;47.994;8.820;2022-07-29T10:53:45;8.40;;;5.30;;
7383;SDS011;3733;47.994;8.820;2022-07-29T10:59:21;7.30;;;4.87;;
7383;SDS011;3733;47.994;8.820;2022-07-29T11:01:43;7.00;;;4.73;;
7383;SDS011;3733;47.994;8.820;2022-07-29T11:04:09;8.60;;;5.00;;
7383;SDS011;3733;47.994;8.820;2022-07-29T11:09:25;5.13;;;4.63;;
7383;SDS011;3733;47.994;8.820;2022-07-29T11:11:51;6.83;;;4.70;;
7383;SDS011;3733;47.994;8.820;2022-07-29T11:14:18;5.87;;;4.53;;
7383;SDS011;3733;47.994;8.820;2022-07-29T11:17:04;5.73;;;4.60;;
7383;SDS011;3733;47.994;8.820;2022-07-29T11:19:31;5.37;;;4.13;;
7383;SDS011;3733;47.994;8.820;2022-07-29T11:21:57;8.30;;;3.90;;
7383;SDS011;3733;47.994;8.820;2022-07-29T11:24:25;4.80;;;3.80;;
7383;SDS011;3733;47.994;8.820;2022-07-29T11:30:00;6.53;;;5.20;;
7383;SDS011;3733;47.994;8.820;2022-07-29T11:32:36;5.90;;;4.63;;
7383;SDS011;3733;47.994;8.820;2022-07-29T11:35:11;4.60;;;3.90;;
7383;SDS011;3733;47.994;8.820;2022-07-29T11:44:00;5.73;;;3.70;;
7383;SDS011;3733;47.994;8.820;2022-07-29T11:46:45;4.10;;;3.60;;
7383;SDS011;3733;47.994;8.820;2022-07-29T11:49:11;4.00;;;3.30;;
7383;SDS011;3733;47.994;8.820;2022-07-29T11:51:38;5.37;;;3.73;;
7383;SDS011;3733;47.994;8.820;2022-07-29T11:54:05;4.20;;;3.80;;
7383;SDS011;3733;47.994;8.820;2022-07-29T11:56:36;4.10;;;3.33;;
7383;SDS011;3733;47.994;8.820;2022-07-29T11:59:08;6.57;;;3.50;;
7383;SDS011;3733;47.994;8.820;2022-07-29T12:01:35;4.30;;;3.70;;
7383;SDS011;3733;47.994;8.820;2022-07-29T12:04:04;4.30;;;3.70;;
7383;SDS011;3733;47.994;8.820;2022-07-29T12:06:30;5.50;;;4.30;;
7383;SDS011;3733;47.994;8.820;2022-07-29T12:08:56;4.37;;;3.97;;
7383;SDS011;3733;47.994;8.820;2022-07-29T12:11:22;6.67;;;4.30;;
7383;SDS011;3733;47.994;8.820;2022-07-29T12:13:48;3.77;;;3.47;;
7383;SDS011;3733;47.994;8.820;2022-07-29T12:16:16;6.63;;;4.13;;
7383;SDS011;3733;47.994;8.820;2022-07-29T12:18:42;5.30;;;4.27;;
7383;SDS011;3733;47.994;8.820;2022-07-29T12:21:19;9.17;;;3.80;;
7383;SDS011;3733;47.994;8.820;2022-07-29T12:23:51;5.97;;;3.70;;
7383;SDS011;3733;47.994;8.820;2022-07-29T12:26:21;3.70;;;3.27;;
7383;SDS011;3733;47.994;8.820;2022-07-29T12:28:46;11.97;;;4.60;;
7383;SDS011;3733;47.994;8.820;2022-07-29T12:31:13;29.33;;;5.83;;
7383;SDS011;3733;47.994;8.820;2022-07-29T12:33:40;6.67;;;4.27;;
7383;SDS011;3733;47.994;8.820;2022-07-29T12:36:06;5.73;;;3.70;;
7383;SDS011;3733;47.994;8.820;2022-07-29T12:38:33;5.90;;;4.97;;
7383;SDS011;3733;47.994;8.820;2022-07-29T12:40:59;13.37;;;6.53;;
7383;SDS011;3733;47.994;8.820;2022-07-29T12:43:26;9.13;;;4.93;;
7383;SDS011;3733;47.994;8.820;2022-07-29T12:45:52;8.53;;;4.90;;
7383;SDS011;3733;47.994;8.820;2022-07-29T12:48:39;7.20;;;4.43;;
7383;SDS011;3733;47.994;8.820;2022-07-29T12:51:06;6.40;;;5.47;;
7383;SDS011;3733;47.994;8.820;2022-07-29T12:53:34;10.13;;;4.20;;
7383;SDS011;3733;47.994;8.820;2022-07-29T12:56:01;4.87;;;3.90;;
7383;SDS011;3733;47.994;8.820;2022-07-29T13:01:13;4.10;;;3.70;;
7383;SDS011;3733;47.994;8.820;2022-07-29T13:03:51;6.63;;;4.83;;
7383;SDS011;3733;47.994;8.820;2022-07-29T13:06:31;4.17;;;3.77;;
7383;SDS011;3733;47.994;8.820;2022-07-29T13:09:16;8.90;;;4.13;;
7383;SDS011;3733;47.994;8.820;2022-07-29T13:11:48;16.20;;;4.50;;
7383;SDS011;3733;47.994;8.820;2022-07-29T13:19:42;5.27;;;4.20;;
7383;SDS011;3733;47.994;8.820;2022-07-29T13:22:19;7.30;;;4.23;;
7383;SDS011;3733;47.994;8.820;2022-07-29T13:24:54;4.57;;;4.00;;
7383;SDS011;3733;47.994;8.820;2022-07-29T13:27:25;5.17;;;4.10;;
7383;SDS011;3733;47.994;8.820;2022-07-29T13:29:52;6.73;;;4.27;;
7383;SDS011;3733;47.994;8.820;2022-07-29T13:32:21;5.57;;;4.90;;
7383;SDS011;3733;47.994;8.820;2022-07-29T13:34:48;13.80;;;5.57;;
7383;SDS011;3733;47.994;8.820;2022-07-29T13:37:14;6.13;;;5.27;;
7383;SDS011;3733;47.994;8.820;2022-07-29T13:39:41;9.03;;;5.37;;
7383;SDS011;3733;47.994;8.820;2022-07-29T13:42:07;10.53;;;5.70;;
7383;SDS011;3733;47.994;8.820;2022-07-29T13:44:33;8.23;;;4.90;;
7383;SDS011;3733;47.994;8.820;2022-07-29T13:46:59;5.87;;;5.10;;
7383;SDS011;3733;47.994;8.820;2022-07-29T13:49:25;6.13;;;4.77;;
7383;SDS011;3733;47.994;8.820;2022-07-29T13:51:51;8.50;;;5.67;;
7383;SDS011;3733;47.994;8.820;2022-07-29T13:54:17;10.43;;;5.57;;
7383;SDS011;3733;47.994;8.820;2022-07-29T13:56:42;7.57;;;5.17;;
7383;SDS011;3733;47.994;8.820;2022-07-29T13:59:08;8.93;;;6.77;;
7383;SDS011;3733;47.994;8.820;2022-07-29T14:01:34;10.30;;;5.53;;
7383;SDS011;3733;47.994;8.820;2022-07-29T14:04:00;8.23;;;5.77;;
7383;SDS011;3733;47.994;8.820;2022-07-29T14:06:26;12.37;;;7.37;;
7383;SDS011;3733;47.994;8.820;2022-07-29T14:08:51;11.53;;;6.03;;
7383;SDS011;3733;47.994;8.820;2022-07-29T14:11:17;12.13;;;7.33;;
7383;SDS011;3733;47.994;8.820;2022-07-29T14:13:43;12.90;;;6.03;;
7383;SDS011;3733;47.994;8.820;2022-07-29T14:16:09;12.07;;;5.70;;
7383;SDS011;3733;47.994;8.820;2022-07-29T14:18:34;10.83;;;6.00;;
7383;SDS011;3733;47.994;8.820;2022-07-29T14:21:00;9.93;;;6.43;;
7383;SDS011;3733;47.994;8.820;2022-07-29T14:23:26;11.53;;;5.47;;
7383;SDS011;3733;47.994;8.820;2022-07-29T14:25:51;7.40;;;5.20;;
7383;SDS011;3733;47.994;8.820;2022-07-29T14:28:17;8.10;;;6.37;;
7383;SDS011;3733;47.994;8.820;2022-07-29T14:30:42;9.53;;;5.90;;
7383;SDS011;3733;47.994;8.820;2022-07-29T14:33:08;11.07;;;6.27;;
7383;SDS011;3733;47.994;8.820;2022-07-29T14:35:34;8.73;;;6.00;;
7383;SDS011;3733;47.994;8.820;2022-07-29T14:37:59;8.73;;;5.90;;
7383;SDS011;3733;47.994;8.820;2022-07-29T14:40:25;7.43;;;5.40;;
7383;SDS011;3733;47.994;8.820;2022-07-29T14:42:51;10.80;;;6.70;;
7383;SDS011;3733;47.994;8.820;2022-07-29T14:45:16;11.30;;;5.87;;
7383;SDS011;3733;47.994;8.820;2022-07-29T14:47:42;7.63;;;6.00;;
7383;SDS011;3733;47.994;8.820;2022-07-29T14:50:08;8.23;;;5.77;;
7383;SDS011;3733;47.994;8.820;2022-07-29T14:52:34;7.10;;;5.70;;
7383;SDS011;3733;47.994;8.820;2022-07-29T14:55:00;9.40;;;6.70;;
7383;SDS011;3733;47.994;8.820;2022-07-29T14:57:25;11.13;;;6.57;;
7383;SDS011;3733;47.994;8.820;2022-07-29T14:59:51;13.13;;;8.77;;
7383;SDS011;3733;47.994;8.820;2022-07-29T15:02:17;10.07;;;6.50;;
7383;SDS011;3733;47.994;8.820;2022-07-29T15:04:43;7.00;;;6.23;;
7383;SDS011;3733;47.994;8.820;2022-07-29T15:07:10;11.93;;;6.27;;
7383;SDS011;3733;47.994;8.820;2022-07-29T15:09:36;8.13;;;5.80;;
7383;SDS011;3733;47.994;8.820;2022-07-29T15:12:02;9.43;;;6.40;;
7383;SDS011;3733;47.994;8.820;2022-07-29T15:14:29;10.80;;;6.63;;
7383;SDS011;3733;47.994;8.820;2022-07-29T15:16:55;9.03;;;6.27;;
7383;SDS011;3733;47.994;8.820;2022-07-29T15:19:20;10.50;;;5.40;;
7383;SDS011;3733;47.994;8.820;2022-07-29T15:21:46;9.10;;;6.30;;
7383;SDS011;3733;47.994;8.820;2022-07-29T15:24:11;8.20;;;6.07;;
7383;SDS011;3733;47.994;8.820;2022-07-29T15:26:37;10.30;;;5.40;;
7383;SDS011;3733;47.994;8.820;2022-07-29T15:29:03;6.90;;;5.57;;
7383;SDS011;3733;47.994;8.820;2022-07-29T15:31:28;9.17;;;5.93;;
7383;SDS011;3733;47.994;8.820;2022-07-29T15:33:54;13.37;;;5.40;;
7383;SDS011;3733;47.994;8.820;2022-07-29T15:36:19;8.30;;;5.90;;
7383;SDS011;3733;47.994;8.820;2022-07-29T15:38:45;13.93;;;5.40;;
7383;SDS011;3733;47.994;8.820;2022-07-29T15:41:13;8.20;;;5.63;;
7383;SDS011;3733;47.994;8.820;2022-07-29T15:43:45;6.97;;;6.00;;
7383;SDS011;3733;47.994;8.820;2022-07-29T15:46:16;6.37;;;5.77;;
7383;SDS011;3733;47.994;8.820;2022-07-29T15:49:02;11.80;;;6.10;;
7383;SDS011;3733;47.994;8.820;2022-07-29T15:51:28;14.30;;;6.80;;
7383;SDS011;3733;47.994;8.820;2022-07-29T15:53:54;186.60;;;20.93;;
7383;SDS011;3733;47.994;8.820;2022-07-29T15:56:20;11.80;;;5.67;;
7383;SDS011;3733;47.994;8.820;2022-07-29T15:58:46;10.80;;;6.37;;
7383;SDS011;3733;47.994;8.820;2022-07-29T16:01:12;11.37;;;6.20;;